首页
METAR-TAF:

METAR-TAF

机场 :

Sioux Gateway Airport (Col. Bud Day Field)

蘇城, 艾奥瓦州, 美国

纬度: 42-24-09N, 经度: 096-23-04W, 海拔: 335米

当前天气观测

该预报发布于54分钟前的03:52 UTC
风速6节,风向西北
温度 29°C
湿度 74%
气压 1004 hPa
能見度: 16.1公里
天空无云

METAR: KSUX 250352Z AUTO 31006KT 10SM CLR 29/24 A2966 RMK AO2 SLP033 T02890244 $

时间: 23:46 (04:46 UTC)

预报

该预报发布于5小时和14分钟前的23:32 UTC
预报有效从25日的 00点(UTC)到 25日的 24点(UTC)
风速10节,风向南转西南,有时为18节阵风
能見度: 10公里
散云层高于18000英尺
附近有阵雨
从 25日的 0200点(UTC)
风速7节,风向西南
能見度: 10公里
少量云层高于25000英尺
从 25日的 0600点(UTC)
风速5节,风向西转西北
能見度: 10公里
少量云层高于25000英尺
从 25日的 1200点(UTC)
风速5节,风向北转东北
能見度: 10公里
少量云层高于25000英尺
从 25日的 1600点(UTC)
风速7节,风向
能見度: 10公里
散云层高于20000英尺
从 25日的 2200点(UTC)
风速9节,风向北转东北
能見度: 10公里
多云层高于20000英尺

TAF: KSUX 242332Z 2500/2524 20010G18KT P6SM VCSH SCT180 FM250200 23007KT P6SM FEW250 FM250600 29005KT P6SM FEW250 FM251200 02005KT P6SM FEW250 FM251600 10007KT P6SM SCT200 FM252200 03009KT P6SM BKN200

超过4000个机场的气象观测和天气预报(METAR&TAF报告)。

可查询的气象台以黄色和红色小点在地图上表示。

将鼠标移到小点上方,可查看气象台名称。

然后点击查看天气观测和预报。

如需切换地图:点击带黑十字的绿色按钮放大地图;点击带横线的绿色按钮缩小地图;或者点击绿色箭头查看邻近地区的地图。


METAR-TAF: